sensor_id;sensor_type;location;lat;lon;timestamp;P1;durP1;ratioP1;P2;durP2;ratioP2
14300;SDS011;7234;59.306;18.024;2023-02-26T16:31:47;2.47;;;0.70;;
14300;SDS011;7234;59.306;18.024;2023-02-26T16:34:27;2.00;;;0.83;;
14300;SDS011;7234;59.306;18.024;2023-02-26T16:37:19;2.70;;;1.03;;
14300;SDS011;7234;59.306;18.024;2023-02-26T16:39:53;2.30;;;0.80;;
14300;SDS011;7234;59.306;18.024;2023-02-26T16:42:37;3.67;;;1.37;;
14300;SDS011;7234;59.306;18.024;2023-02-26T16:45:22;2.93;;;0.87;;
14300;SDS011;7234;59.306;18.024;2023-02-26T16:48:20;2.00;;;0.80;;
14300;SDS011;7234;59.306;18.024;2023-02-26T16:50:56;3.83;;;1.30;;
14300;SDS011;7234;59.306;18.024;2023-02-26T16:53:30;4.73;;;1.00;;
14300;SDS011;7234;59.306;18.024;2023-02-26T16:56:08;1.93;;;0.90;;
14300;SDS011;7234;59.306;18.024;2023-02-26T16:59:02;2.27;;;1.13;;
14300;SDS011;7234;59.306;18.024;2023-02-26T17:01:35;2.73;;;0.90;;
14300;SDS011;7234;59.306;18.024;2023-02-26T17:04:14;7.63;;;1.20;;
14300;SDS011;7234;59.306;18.024;2023-02-26T17:06:42;3.87;;;1.20;;
14300;SDS011;7234;59.306;18.024;2023-02-26T17:09:22;3.67;;;1.10;;
14300;SDS011;7234;59.306;18.024;2023-02-26T17:12:04;1.50;;;1.00;;
14300;SDS011;7234;59.306;18.024;2023-02-26T17:14:38;1.90;;;1.03;;
14300;SDS011;7234;59.306;18.024;2023-02-26T17:17:07;4.93;;;1.10;;
14300;SDS011;7234;59.306;18.024;2023-02-26T17:19:36;1.23;;;0.90;;
14300;SDS011;7234;59.306;18.024;2023-02-26T17:22:04;4.80;;;1.20;;
14300;SDS011;7234;59.306;18.024;2023-02-26T17:24:37;3.00;;;1.30;;
14300;SDS011;7234;59.306;18.024;2023-02-26T17:27:09;5.73;;;1.50;;
14300;SDS011;7234;59.306;18.024;2023-02-26T17:29:40;2.77;;;1.30;;
14300;SDS011;7234;59.306;18.024;2023-02-26T17:32:11;5.17;;;1.00;;
14300;SDS011;7234;59.306;18.024;2023-02-26T17:34:43;2.83;;;1.27;;
14300;SDS011;7234;59.306;18.024;2023-02-26T17:37:10;1.83;;;1.27;;
14300;SDS011;7234;59.306;18.024;2023-02-26T17:39:38;3.70;;;1.93;;
14300;SDS011;7234;59.306;18.024;2023-02-26T17:42:08;15.80;;;2.27;;
14300;SDS011;7234;59.306;18.024;2023-02-26T17:44:36;1.87;;;1.40;;
14300;SDS011;7234;59.306;18.024;2023-02-26T17:47:04;3.40;;;1.60;;
14300;SDS011;7234;59.306;18.024;2023-02-26T17:49:36;3.80;;;1.40;;
14300;SDS011;7234;59.306;18.024;2023-02-26T17:52:04;3.53;;;1.50;;
14300;SDS011;7234;59.306;18.024;2023-02-26T17:54:38;7.07;;;1.60;;
14300;SDS011;7234;59.306;18.024;2023-02-26T17:57:05;3.90;;;1.77;;
14300;SDS011;7234;59.306;18.024;2023-02-26T17:59:33;2.33;;;1.10;;
14300;SDS011;7234;59.306;18.024;2023-02-26T18:02:07;6.30;;;1.63;;
14300;SDS011;7234;59.306;18.024;2023-02-26T18:04:41;6.27;;;1.60;;
14300;SDS011;7234;59.306;18.024;2023-02-26T18:07:09;4.47;;;1.60;;
14300;SDS011;7234;59.306;18.024;2023-02-26T18:09:41;5.43;;;1.80;;
14300;SDS011;7234;59.306;18.024;2023-02-26T18:12:09;2.10;;;1.13;;
14300;SDS011;7234;59.306;18.024;2023-02-26T18:14:39;5.67;;;1.37;;
14300;SDS011;7234;59.306;18.024;2023-02-26T18:17:09;2.23;;;1.47;;
14300;SDS011;7234;59.306;18.024;2023-02-26T18:19:38;1.70;;;0.97;;
14300;SDS011;7234;59.306;18.024;2023-02-26T18:22:07;3.67;;;1.60;;
14300;SDS011;7234;59.306;18.024;2023-02-26T18:24:39;5.40;;;1.27;;
14300;SDS011;7234;59.306;18.024;2023-02-26T18:27:10;2.23;;;1.40;;
14300;SDS011;7234;59.306;18.024;2023-02-26T18:29:39;2.77;;;2.10;;
14300;SDS011;7234;59.306;18.024;2023-02-26T18:32:08;11.90;;;4.17;;
14300;SDS011;7234;59.306;18.024;2023-02-26T18:34:37;4.93;;;2.73;;
14300;SDS011;7234;59.306;18.024;2023-02-26T18:37:04;5.60;;;2.50;;
14300;SDS011;7234;59.306;18.024;2023-02-26T18:39:33;1.93;;;1.27;;
14300;SDS011;7234;59.306;18.024;2023-02-26T18:42:02;5.43;;;1.87;;
14300;SDS011;7234;59.306;18.024;2023-02-26T18:44:30;4.07;;;1.63;;
14300;SDS011;7234;59.306;18.024;2023-02-26T18:47:01;4.10;;;1.60;;
14300;SDS011;7234;59.306;18.024;2023-02-26T18:49:37;3.03;;;1.30;;
14300;SDS011;7234;59.306;18.024;2023-02-26T18:52:04;3.10;;;1.33;;
14300;SDS011;7234;59.306;18.024;2023-02-26T18:54:33;3.40;;;1.47;;
14300;SDS011;7234;59.306;18.024;2023-02-26T18:57:01;2.77;;;1.57;;
14300;SDS011;7234;59.306;18.024;2023-02-26T18:59:28;2.07;;;1.23;;
14300;SDS011;7234;59.306;18.024;2023-02-26T19:01:55;1.67;;;1.43;;
14300;SDS011;7234;59.306;18.024;2023-02-26T19:04:22;4.30;;;1.93;;
14300;SDS011;7234;59.306;18.024;2023-02-26T19:06:50;3.83;;;1.73;;
14300;SDS011;7234;59.306;18.024;2023-02-26T19:09:17;5.53;;;2.40;;
14300;SDS011;7234;59.306;18.024;2023-02-26T19:11:45;5.27;;;2.50;;
14300;SDS011;7234;59.306;18.024;2023-02-26T19:14:12;2.80;;;1.43;;
14300;SDS011;7234;59.306;18.024;2023-02-26T19:16:39;3.97;;;1.80;;
14300;SDS011;7234;59.306;18.024;2023-02-26T19:19:08;7.73;;;1.50;;
14300;SDS011;7234;59.306;18.024;2023-02-26T19:21:35;5.03;;;1.50;;
14300;SDS011;7234;59.306;18.024;2023-02-26T19:24:05;5.63;;;1.40;;
14300;SDS011;7234;59.306;18.024;2023-02-26T19:26:33;1.70;;;1.27;;
14300;SDS011;7234;59.306;18.024;2023-02-26T19:29:08;1.87;;;1.30;;
14300;SDS011;7234;59.306;18.024;2023-02-26T19:31:39;1.63;;;0.90;;
14300;SDS011;7234;59.306;18.024;2023-02-26T19:34:18;4.20;;;1.53;;
14300;SDS011;7234;59.306;18.024;2023-02-26T19:36:48;3.13;;;1.57;;
14300;SDS011;7234;59.306;18.024;2023-02-26T19:39:16;2.27;;;1.53;;
14300;SDS011;7234;59.306;18.024;2023-02-26T19:41:43;2.83;;;1.50;;
14300;SDS011;7234;59.306;18.024;2023-02-26T19:44:14;2.77;;;1.67;;
14300;SDS011;7234;59.306;18.024;2023-02-26T19:46:41;3.50;;;1.43;;
14300;SDS011;7234;59.306;18.024;2023-02-26T19:49:09;4.23;;;1.47;;
14300;SDS011;7234;59.306;18.024;2023-02-26T19:51:36;3.20;;;1.50;;
14300;SDS011;7234;59.306;18.024;2023-02-26T19:54:04;2.23;;;1.47;;
14300;SDS011;7234;59.306;18.024;2023-02-26T19:56:34;4.77;;;1.57;;
14300;SDS011;7234;59.306;18.024;2023-02-26T19:59:03;3.47;;;1.17;;
14300;SDS011;7234;59.306;18.024;2023-02-26T20:01:31;3.47;;;1.70;;
14300;SDS011;7234;59.306;18.024;2023-02-26T20:03:58;4.40;;;3.00;;
14300;SDS011;7234;59.306;18.024;2023-02-26T20:06:28;3.83;;;1.80;;
14300;SDS011;7234;59.306;18.024;2023-02-26T20:08:58;4.40;;;1.80;;
14300;SDS011;7234;59.306;18.024;2023-02-26T20:11:31;3.13;;;1.73;;
14300;SDS011;7234;59.306;18.024;2023-02-26T20:13:58;2.87;;;1.77;;
14300;SDS011;7234;59.306;18.024;2023-02-26T20:16:29;2.80;;;1.50;;
14300;SDS011;7234;59.306;18.024;2023-02-26T20:18:57;2.73;;;1.50;;
14300;SDS011;7234;59.306;18.024;2023-02-26T20:21:28;1.80;;;1.53;;
14300;SDS011;7234;59.306;18.024;2023-02-26T20:23:55;5.40;;;1.93;;
14300;SDS011;7234;59.306;18.024;2023-02-26T20:26:22;4.43;;;1.30;;
14300;SDS011;7234;59.306;18.024;2023-02-26T20:28:50;2.80;;;1.13;;
14300;SDS011;7234;59.306;18.024;2023-02-26T20:31:17;2.93;;;1.40;;
14300;SDS011;7234;59.306;18.024;2023-02-26T20:33:44;3.13;;;1.33;;
14300;SDS011;7234;59.306;18.024;2023-02-26T20:36:19;2.87;;;1.30;;
14300;SDS011;7234;59.306;18.024;2023-02-26T20:38:47;5.33;;;1.43;;
14300;SDS011;7234;59.306;18.024;2023-02-26T20:41:16;2.90;;;1.23;;
14300;SDS011;7234;59.306;18.024;2023-02-26T20:43:43;3.43;;;1.50;;
14300;SDS011;7234;59.306;18.024;2023-02-26T20:46:10;3.93;;;1.40;;
14300;SDS011;7234;59.306;18.024;2023-02-26T20:48:38;3.50;;;1.80;;
14300;SDS011;7234;59.306;18.024;2023-02-26T20:51:07;3.57;;;1.50;;
14300;SDS011;7234;59.306;18.024;2023-02-26T20:53:37;4.67;;;1.73;;
14300;SDS011;7234;59.306;18.024;2023-02-26T20:56:08;1.80;;;1.23;;
14300;SDS011;7234;59.306;18.024;2023-02-26T20:58:35;2.77;;;1.47;;
14300;SDS011;7234;59.306;18.024;2023-02-26T21:01:03;8.13;;;2.00;;
14300;SDS011;7234;59.306;18.024;2023-02-26T21:03:33;2.60;;;1.40;;
14300;SDS011;7234;59.306;18.024;2023-02-26T21:06:23;3.90;;;1.60;;
14300;SDS011;7234;59.306;18.024;2023-02-26T21:09:26;5.63;;;1.40;;
14300;SDS011;7234;59.306;18.024;2023-02-26T21:12:01;4.37;;;1.60;;
14300;SDS011;7234;59.306;18.024;2023-02-26T21:14:34;4.63;;;1.53;;
14300;SDS011;7234;59.306;18.024;2023-02-26T21:17:32;3.93;;;1.77;;
14300;SDS011;7234;59.306;18.024;2023-02-26T21:20:10;5.77;;;1.40;;
14300;SDS011;7234;59.306;18.024;2023-02-26T21:23:11;1.80;;;1.37;;
14300;SDS011;7234;59.306;18.024;2023-02-26T21:25:55;7.63;;;1.60;;
14300;SDS011;7234;59.306;18.024;2023-02-26T21:28:31;4.40;;;1.50;;
14300;SDS011;7234;59.306;18.024;2023-02-26T21:30:58;2.53;;;1.40;;
14300;SDS011;7234;59.306;18.024;2023-02-26T21:33:31;6.23;;;1.50;;
14300;SDS011;7234;59.306;18.024;2023-02-26T21:36:03;3.47;;;1.57;;
14300;SDS011;7234;59.306;18.024;2023-02-26T21:38:35;2.87;;;1.37;;
14300;SDS011;7234;59.306;18.024;2023-02-26T21:41:18;4.27;;;1.80;;
14300;SDS011;7234;59.306;18.024;2023-02-26T21:43:46;1.90;;;1.27;;
14300;SDS011;7234;59.306;18.024;2023-02-26T21:46:13;2.27;;;1.33;;
14300;SDS011;7234;59.306;18.024;2023-02-26T21:48:43;3.73;;;1.70;;
14300;SDS011;7234;59.306;18.024;2023-02-26T21:51:16;2.33;;;1.33;;
14300;SDS011;7234;59.306;18.024;2023-02-26T21:53:48;2.00;;;1.40;;
14300;SDS011;7234;59.306;18.024;2023-02-26T21:56:29;2.83;;;1.77;;
14300;SDS011;7234;59.306;18.024;2023-02-26T21:58:57;3.53;;;1.40;;
14300;SDS011;7234;59.306;18.024;2023-02-26T22:01:35;2.97;;;1.67;;
14300;SDS011;7234;59.306;18.024;2023-02-26T22:04:08;3.67;;;1.50;;
14300;SDS011;7234;59.306;18.024;2023-02-26T22:06:43;2.83;;;1.20;;
14300;SDS011;7234;59.306;18.024;2023-02-26T22:09:13;2.10;;;1.33;;
14300;SDS011;7234;59.306;18.024;2023-02-26T22:11:42;3.90;;;1.40;;
14300;SDS011;7234;59.306;18.024;2023-02-26T22:14:10;3.47;;;1.20;;
14300;SDS011;7234;59.306;18.024;2023-02-26T22:16:37;3.23;;;1.70;;
14300;SDS011;7234;59.306;18.024;2023-02-26T22:19:04;3.17;;;1.50;;
14300;SDS011;7234;59.306;18.024;2023-02-26T22:21:32;2.10;;;1.70;;
14300;SDS011;7234;59.306;18.024;2023-02-26T22:23:59;2.33;;;1.37;;
14300;SDS011;7234;59.306;18.024;2023-02-26T22:26:27;3.20;;;1.50;;
14300;SDS011;7234;59.306;18.024;2023-02-26T22:28:56;1.77;;;1.40;;
14300;SDS011;7234;59.306;18.024;2023-02-26T22:31:25;4.80;;;2.00;;
14300;SDS011;7234;59.306;18.024;2023-02-26T22:33:53;5.63;;;1.57;;
14300;SDS011;7234;59.306;18.024;2023-02-26T22:36:21;4.53;;;2.13;;
14300;SDS011;7234;59.306;18.024;2023-02-26T22:38:48;4.47;;;1.60;;
14300;SDS011;7234;59.306;18.024;2023-02-26T22:41:15;3.47;;;1.63;;
14300;SDS011;7234;59.306;18.024;2023-02-26T22:43:43;3.23;;;1.87;;
14300;SDS011;7234;59.306;18.024;2023-02-26T22:46:12;4.83;;;2.30;;
14300;SDS011;7234;59.306;18.024;2023-02-26T22:48:41;3.77;;;2.20;;
14300;SDS011;7234;59.306;18.024;2023-02-26T22:51:08;5.20;;;2.17;;
14300;SDS011;7234;59.306;18.024;2023-02-26T22:53:35;6.67;;;2.60;;
14300;SDS011;7234;59.306;18.024;2023-02-26T22:56:02;3.23;;;2.17;;
14300;SDS011;7234;59.306;18.024;2023-02-26T22:58:29;3.87;;;2.43;;
14300;SDS011;7234;59.306;18.024;2023-02-26T23:00:57;3.57;;;2.17;;
14300;SDS011;7234;59.306;18.024;2023-02-26T23:03:31;5.10;;;2.20;;
14300;SDS011;7234;59.306;18.024;2023-02-26T23:06:02;4.67;;;2.13;;
14300;SDS011;7234;59.306;18.024;2023-02-26T23:08:29;2.57;;;2.07;;
14300;SDS011;7234;59.306;18.024;2023-02-26T23:10:58;6.13;;;2.60;;
14300;SDS011;7234;59.306;18.024;2023-02-26T23:13:26;5.13;;;2.43;;
14300;SDS011;7234;59.306;18.024;2023-02-26T23:15:58;5.33;;;2.60;;
14300;SDS011;7234;59.306;18.024;2023-02-26T23:18:25;5.23;;;2.10;;
14300;SDS011;7234;59.306;18.024;2023-02-26T23:20:56;5.43;;;2.07;;
14300;SDS011;7234;59.306;18.024;2023-02-26T23:23:25;4.13;;;1.80;;
14300;SDS011;7234;59.306;18.024;2023-02-26T23:26:06;6.13;;;2.33;;
14300;SDS011;7234;59.306;18.024;2023-02-26T23:28:34;4.63;;;2.70;;
14300;SDS011;7234;59.306;18.024;2023-02-26T23:31:01;3.57;;;2.63;;
14300;SDS011;7234;59.306;18.024;2023-02-26T23:33:30;3.77;;;1.97;;
14300;SDS011;7234;59.306;18.024;2023-02-26T23:36:00;4.40;;;2.20;;
14300;SDS011;7234;59.306;18.024;2023-02-26T23:38:27;4.90;;;2.57;;
14300;SDS011;7234;59.306;18.024;2023-02-26T23:40:54;5.73;;;2.77;;
14300;SDS011;7234;59.306;18.024;2023-02-26T23:43:21;3.70;;;2.40;;
14300;SDS011;7234;59.306;18.024;2023-02-26T23:45:49;3.37;;;1.93;;
14300;SDS011;7234;59.306;18.024;2023-02-26T23:48:16;2.63;;;1.80;;
14300;SDS011;7234;59.306;18.024;2023-02-26T23:50:43;7.20;;;2.00;;
14300;SDS011;7234;59.306;18.024;2023-02-26T23:53:16;3.07;;;1.63;;
14300;SDS011;7234;59.306;18.024;2023-02-26T23:55:44;4.50;;;1.77;;
14300;SDS011;7234;59.306;18.024;2023-02-26T23:58:16;2.87;;;1.70;;
